sensor_id;sensor_type;location;lat;lon;timestamp;pressure;altitude;pressure_sealevel;temperature;humidity
46614;BME280;32338;50.430;6.806;2023-03-14T00:02:22;66191.78;;;7.10;100.00
46614;BME280;32338;50.430;6.806;2023-03-14T00:04:49;66194.78;;;7.15;100.00
46614;BME280;32338;50.430;6.806;2023-03-14T00:07:15;66200.00;;;7.15;100.00
46614;BME280;32338;50.430;6.806;2023-03-14T00:09:42;66189.72;;;7.10;100.00
46614;BME280;32338;50.430;6.806;2023-03-14T00:12:09;66193.81;;;7.09;100.00
46614;BME280;32338;50.430;6.806;2023-03-14T00:14:36;66184.66;;;7.06;100.00
46614;BME280;32338;50.430;6.806;2023-03-14T00:17:04;66189.19;;;7.10;100.00
46614;BME280;32338;50.430;6.806;2023-03-14T00:19:30;66191.41;;;7.12;100.00
46614;BME280;32338;50.430;6.806;2023-03-14T00:21:57;66189.72;;;7.10;100.00
46614;BME280;32338;50.430;6.806;2023-03-14T00:24:24;66197.59;;;7.18;100.00
46614;BME280;32338;50.430;6.806;2023-03-14T00:26:51;66184.31;;;7.08;100.00
46614;BME280;32338;50.430;6.806;2023-03-14T00:29:18;66185.59;;;7.04;100.00
46614;BME280;32338;50.430;6.806;2023-03-14T00:31:45;66185.44;;;7.09;100.00
46614;BME280;32338;50.430;6.806;2023-03-14T00:34:13;66179.63;;;7.01;100.00
46614;BME280;32338;50.430;6.806;2023-03-14T00:36:40;66178.84;;;6.98;100.00
46614;BME280;32338;50.430;6.806;2023-03-14T00:39:07;66183.75;;;7.07;100.00
46614;BME280;32338;50.430;6.806;2023-03-14T00:41:33;66181.50;;;7.05;100.00
46614;BME280;32338;50.430;6.806;2023-03-14T00:44:00;66178.84;;;6.98;100.00
46614;BME280;32338;50.430;6.806;2023-03-14T00:46:27;66189.53;;;7.08;100.00
46614;BME280;32338;50.430;6.806;2023-03-14T00:48:56;66173.09;;;6.97;100.00
46614;BME280;32338;50.430;6.806;2023-03-14T00:51:24;66174.00;;;6.96;100.00
46614;BME280;32338;50.430;6.806;2023-03-14T00:53:51;66177.38;;;6.99;100.00
46614;BME280;32338;50.430;6.806;2023-03-14T00:56:17;66182.06;;;7.06;100.00
46614;BME280;32338;50.430;6.806;2023-03-14T00:58:44;66187.47;;;7.08;100.00
46614;BME280;32338;50.430;6.806;2023-03-14T01:01:13;66188.97;;;7.07;100.00
46614;BME280;32338;50.430;6.806;2023-03-14T01:03:41;66185.25;;;7.06;100.00
46614;BME280;32338;50.430;6.806;2023-03-14T01:06:09;66187.06;;;7.03;100.00
46614;BME280;32338;50.430;6.806;2023-03-14T01:08:38;66194.03;;;7.12;100.00
46614;BME280;32338;50.430;6.806;2023-03-14T01:11:08;66194.94;;;7.10;100.00
46614;BME280;32338;50.430;6.806;2023-03-14T01:13:36;66182.44;;;7.04;100.00
46614;BME280;32338;50.430;6.806;2023-03-14T01:16:05;66177.56;;;7.02;100.00
46614;BME280;32338;50.430;6.806;2023-03-14T01:18:32;66170.47;;;6.97;100.00
46614;BME280;32338;50.430;6.806;2023-03-14T01:21:01;66169.34;;;6.96;100.00
46614;BME280;32338;50.430;6.806;2023-03-14T01:23:28;66168.97;;;6.91;100.00
46614;BME280;32338;50.430;6.806;2023-03-14T01:25:56;66165.56;;;6.88;100.00
46614;BME280;32338;50.430;6.806;2023-03-14T01:28:23;66157.34;;;6.83;100.00
46614;BME280;32338;50.430;6.806;2023-03-14T01:30:50;66162.78;;;6.86;100.00
46614;BME280;32338;50.430;6.806;2023-03-14T01:33:18;66165.78;;;6.91;100.00
46614;BME280;32338;50.430;6.806;2023-03-14T01:35:45;66161.63;;;6.85;100.00
46614;BME280;32338;50.430;6.806;2023-03-14T01:38:11;66159.03;;;6.85;100.00
46614;BME280;32338;50.430;6.806;2023-03-14T01:40:42;66156.81;;;6.82;100.00
46614;BME280;32338;50.430;6.806;2023-03-14T01:43:15;66164.03;;;6.82;100.00
46614;BME280;32338;50.430;6.806;2023-03-14T01:48:51;66160.88;;;6.81;100.00
46614;BME280;32338;50.430;6.806;2023-03-14T01:51:25;66172.47;;;6.90;100.00
46614;BME280;32338;50.430;6.806;2023-03-14T01:53:55;66178.84;;;6.98;100.00
46614;BME280;32338;50.430;6.806;2023-03-14T01:56:26;66175.31;;;7.00;100.00
46614;BME280;32338;50.430;6.806;2023-03-14T01:58:54;66173.44;;;6.95;100.00
46614;BME280;32338;50.430;6.806;2023-03-14T02:01:24;66174.38;;;6.94;100.00
46614;BME280;32338;50.430;6.806;2023-03-14T02:03:54;66176.41;;;6.93;100.00
46614;BME280;32338;50.430;6.806;2023-03-14T02:06:24;66180.19;;;7.02;100.00
46614;BME280;32338;50.430;6.806;2023-03-14T02:08:52;66182.00;;;6.98;100.00
46614;BME280;32338;50.430;6.806;2023-03-14T02:11:19;66188.97;;;7.07;100.00
46614;BME280;32338;50.430;6.806;2023-03-14T02:13:46;66188.41;;;7.07;100.00
46614;BME280;32338;50.430;6.806;2023-03-14T02:16:15;66193.09;;;7.13;100.00
46614;BME280;32338;50.430;6.806;2023-03-14T02:18:42;66177.56;;;7.02;100.00
46614;BME280;32338;50.430;6.806;2023-03-14T02:21:13;66181.50;;;7.05;100.00
46614;BME280;32338;50.430;6.806;2023-03-14T02:23:50;66197.75;;;7.13;100.00
46614;BME280;32338;50.430;6.806;2023-03-14T02:26:22;66180.19;;;7.02;100.00
46614;BME280;32338;50.430;6.806;2023-03-14T02:28:52;66179.78;;;6.96;100.00
46614;BME280;32338;50.430;6.806;2023-03-14T02:54:52;66128.88;;;6.52;100.00
46614;BME280;32338;50.430;6.806;2023-03-14T02:57:18;66125.16;;;6.51;100.00
46614;BME280;32338;50.430;6.806;2023-03-14T02:59:45;66123.47;;;6.49;100.00
46614;BME280;32338;50.430;6.806;2023-03-14T03:02:12;66131.13;;;6.54;100.00
46614;BME280;32338;50.430;6.806;2023-03-14T03:04:39;66115.63;;;6.42;100.00
46614;BME280;32338;50.430;6.806;2023-03-14T03:07:06;66125.16;;;6.51;100.00
46614;BME280;32338;50.430;6.806;2023-03-14T03:09:32;66130.19;;;6.56;100.00
46614;BME280;32338;50.430;6.806;2023-03-14T03:12:01;66127.75;;;6.51;100.00
46614;BME280;32338;50.430;6.806;2023-03-14T03:14:27;66118.22;;;6.42;100.00
46614;BME280;32338;50.430;6.806;2023-03-14T03:16:54;66124.59;;;6.51;100.00
46614;BME280;32338;50.430;6.806;2023-03-14T03:19:21;66116.94;;;6.46;100.00
46614;BME280;32338;50.430;6.806;2023-03-14T03:21:47;66120.09;;;6.46;100.00
46614;BME280;32338;50.430;6.806;2023-03-14T03:24:14;66114.84;;;6.39;100.00
46614;BME280;32338;50.430;6.806;2023-03-14T03:26:41;66113.00;;;6.42;100.00
46614;BME280;32338;50.430;6.806;2023-03-14T03:29:09;66109.22;;;6.34;100.00
46614;BME280;32338;50.430;6.806;2023-03-14T03:31:36;66105.09;;;6.28;100.00
46614;BME280;32338;50.430;6.806;2023-03-14T03:34:03;66105.09;;;6.28;100.00
46614;BME280;32338;50.430;6.806;2023-03-14T03:36:30;66105.88;;;6.31;100.00
46614;BME280;32338;50.430;6.806;2023-03-14T03:38:57;66102.69;;;6.30;100.00
46614;BME280;32338;50.430;6.806;2023-03-14T03:41:23;66098.22;;;6.26;100.00
46614;BME280;32338;50.430;6.806;2023-03-14T03:43:52;66098.75;;;6.27;100.00
46614;BME280;32338;50.430;6.806;2023-03-14T03:46:21;66102.50;;;6.28;100.00
46614;BME280;32338;50.430;6.806;2023-03-14T03:48:47;66111.84;;;6.34;100.00
46614;BME280;32338;50.430;6.806;2023-03-14T03:51:15;66106.06;;;6.33;100.00
46614;BME280;32338;50.430;6.806;2023-03-14T03:53:42;66098.97;;;6.29;100.00
46614;BME280;32338;50.430;6.806;2023-03-14T03:56:09;66096.53;;;6.25;100.00
46614;BME280;32338;50.430;6.806;2023-03-14T03:58:36;66103.81;;;6.31;100.00
46614;BME280;32338;50.430;6.806;2023-03-14T04:01:05;66106.63;;;6.34;100.00
46614;BME280;32338;50.430;6.806;2023-03-14T04:03:33;66111.69;;;6.39;100.00
46614;BME280;32338;50.430;6.806;2023-03-14T04:06:02;66107.91;;;6.30;100.00
46614;BME280;32338;50.430;6.806;2023-03-14T04:08:29;66102.16;;;6.30;100.00
46614;BME280;32338;50.430;6.806;2023-03-14T04:10:57;66097.44;;;6.23;100.00
46614;BME280;32338;50.430;6.806;2023-03-14T04:13:26;66092.03;;;6.21;100.00
46614;BME280;32338;50.430;6.806;2023-03-14T04:15:54;66090.91;;;6.20;100.00
46614;BME280;32338;50.430;6.806;2023-03-14T04:18:21;66096.88;;;6.23;100.00
46614;BME280;32338;50.430;6.806;2023-03-14T04:20:52;66104.94;;;6.32;100.00
46614;BME280;32338;50.430;6.806;2023-03-14T04:23:19;66096.53;;;6.25;100.00
46614;BME280;32338;50.430;6.806;2023-03-14T04:25:47;66099.91;;;6.28;100.00
46614;BME280;32338;50.430;6.806;2023-03-14T04:28:15;66087.53;;;6.16;100.00
46614;BME280;32338;50.430;6.806;2023-03-14T04:30:42;66082.69;;;6.14;100.00
46614;BME280;32338;50.430;6.806;2023-03-14T04:33:09;66076.16;;;6.11;100.00
46614;BME280;32338;50.430;6.806;2023-03-14T04:35:38;66086.00;;;6.10;100.00
46614;BME280;32338;50.430;6.806;2023-03-14T04:38:06;66076.31;;;6.06;100.00
46614;BME280;32338;50.430;6.806;2023-03-14T04:40:32;66077.81;;;6.05;100.00
46614;BME280;32338;50.430;6.806;2023-03-14T04:42:59;66063.59;;;5.97;100.00
46614;BME280;32338;50.430;6.806;2023-03-14T04:45:26;66064.66;;;5.91;100.00
46614;BME280;32338;50.430;6.806;2023-03-14T04:47:53;66057.22;;;5.89;100.00
46614;BME280;32338;50.430;6.806;2023-03-14T04:50:19;66053.50;;;5.88;100.00
46614;BME280;32338;50.430;6.806;2023-03-14T04:52:46;66055.13;;;5.82;100.00
46614;BME280;32338;50.430;6.806;2023-03-14T04:55:15;66051.63;;;5.83;100.00
46614;BME280;32338;50.430;6.806;2023-03-14T04:57:44;66043.38;;;5.78;100.00
46614;BME280;32338;50.430;6.806;2023-03-14T05:00:12;66047.13;;;5.79;100.00
46614;BME280;32338;50.430;6.806;2023-03-14T05:02:39;66044.69;;;5.75;100.00
46614;BME280;32338;50.430;6.806;2023-03-14T05:05:07;66043.34;;;5.71;100.00
46614;BME280;32338;50.430;6.806;2023-03-14T05:07:34;66036.44;;;5.69;100.00
46614;BME280;32338;50.430;6.806;2023-03-14T05:10:00;66040.56;;;5.68;100.00
46614;BME280;32338;50.430;6.806;2023-03-14T05:12:29;66030.28;;;5.64;100.00
46614;BME280;32338;50.430;6.806;2023-03-14T05:14:56;66026.72;;;5.58;100.00
46614;BME280;32338;50.430;6.806;2023-03-14T05:17:22;66035.16;;;5.66;100.00
46614;BME280;32338;50.430;6.806;2023-03-14T05:19:49;66025.44;;;5.62;100.00
46614;BME280;32338;50.430;6.806;2023-03-14T05:22:18;66025.63;;;5.57;100.00
46614;BME280;32338;50.430;6.806;2023-03-14T05:24:45;66029.75;;;5.63;100.00
46614;BME280;32338;50.430;6.806;2023-03-14T05:27:11;66032.91;;;5.64;100.00
46614;BME280;32338;50.430;6.806;2023-03-14T05:29:39;66028.81;;;5.65;100.00
46614;BME280;32338;50.430;6.806;2023-03-14T05:32:06;66046.16;;;5.74;100.00
46614;BME280;32338;50.430;6.806;2023-03-14T05:34:33;66034.22;;;5.67;100.00
46614;BME280;32338;50.430;6.806;2023-03-14T05:37:00;66026.91;;;5.61;100.00
46614;BME280;32338;50.430;6.806;2023-03-14T05:39:27;66034.22;;;5.67;100.00
46614;BME280;32338;50.430;6.806;2023-03-14T05:41:53;66028.03;;;5.62;100.00
46614;BME280;32338;50.430;6.806;2023-03-14T05:44:21;66039.97;;;5.68;100.00
46614;BME280;32338;50.430;6.806;2023-03-14T05:46:49;66036.03;;;5.64;100.00
46614;BME280;32338;50.430;6.806;2023-03-14T05:49:16;66030.09;;;5.61;100.00
46614;BME280;32338;50.430;6.806;2023-03-14T05:51:42;66025.81;;;5.60;100.00
46614;BME280;32338;50.430;6.806;2023-03-14T05:54:09;66038.16;;;5.71;100.00
46614;BME280;32338;50.430;6.806;2023-03-14T05:56:36;66038.84;;;5.67;100.00
46614;BME280;32338;50.430;6.806;2023-03-14T05:59:03;66029.94;;;5.66;100.00
46614;BME280;32338;50.430;6.806;2023-03-14T06:01:30;66023.56;;;5.58;100.00
46614;BME280;32338;50.430;6.806;2023-03-14T06:04:01;66022.63;;;5.59;100.00
46614;BME280;32338;50.430;6.806;2023-03-14T06:06:28;66038.66;;;5.64;100.00
46614;BME280;32338;50.430;6.806;2023-03-14T06:08:54;66026.50;;;5.56;100.00
46614;BME280;32338;50.430;6.806;2023-03-14T06:11:21;66039.63;;;5.70;100.00
46614;BME280;32338;50.430;6.806;2023-03-14T06:13:48;66028.03;;;5.62;100.00
46614;BME280;32338;50.430;6.806;2023-03-14T06:16:15;66029.88;;;5.59;100.00
46614;BME280;32338;50.430;6.806;2023-03-14T06:18:44;66032.13;;;5.61;100.00
46614;BME280;32338;50.430;6.806;2023-03-14T06:21:13;66029.75;;;5.63;100.00
46614;BME280;32338;50.430;6.806;2023-03-14T06:23:40;66028.03;;;5.62;100.00
46614;BME280;32338;50.430;6.806;2023-03-14T06:26:06;66020.41;;;5.57;100.00
46614;BME280;32338;50.430;6.806;2023-03-14T06:28:33;66028.41;;;5.60;100.00
46614;BME280;32338;50.430;6.806;2023-03-14T06:31:00;66033.25;;;5.62;100.00
46614;BME280;32338;50.430;6.806;2023-03-14T06:33:29;66036.63;;;5.65;100.00
46614;BME280;32338;50.430;6.806;2023-03-14T06:35:56;66045.44;;;5.78;100.00
46614;BME280;32338;50.430;6.806;2023-03-14T06:38:25;66042.97;;;5.73;100.00
46614;BME280;32338;50.430;6.806;2023-03-14T06:40:52;66059.06;;;5.85;100.00
46614;BME280;32338;50.430;6.806;2023-03-14T06:43:18;66057.78;;;5.89;100.00
46614;BME280;32338;50.430;6.806;2023-03-14T06:45:45;66054.97;;;5.87;100.00
46614;BME280;32338;50.430;6.806;2023-03-14T06:48:12;66065.44;;;5.94;100.00
46614;BME280;32338;50.430;6.806;2023-03-14T06:50:39;66067.13;;;5.95;100.00
46614;BME280;32338;50.430;6.806;2023-03-14T06:53:05;66064.50;;;5.95;100.00
46614;BME280;32338;50.430;6.806;2023-03-14T06:55:33;66071.06;;;5.99;100.00
46614;BME280;32338;50.430;6.806;2023-03-14T06:58:00;66073.31;;;6.01;100.00
46614;BME280;32338;50.430;6.806;2023-03-14T07:00:33;66075.19;;;6.05;100.00
46614;BME280;32338;50.430;6.806;2023-03-14T07:03:00;66078.56;;;6.08;100.00
46614;BME280;32338;50.430;6.806;2023-03-14T07:05:27;66088.09;;;6.17;100.00
46614;BME280;32338;50.430;6.806;2023-03-14T07:07:57;66092.03;;;6.21;100.00
46614;BME280;32338;50.430;6.806;2023-03-14T07:10:27;66089.81;;;6.19;100.00
46614;BME280;32338;50.430;6.806;2023-03-14T07:12:55;66090.91;;;6.20;100.00
46614;BME280;32338;50.430;6.806;2023-03-14T07:15:22;66087.19;;;6.19;100.00
46614;BME280;32338;50.430;6.806;2023-03-14T07:17:48;66108.47;;;6.31;100.00
46614;BME280;32338;50.430;6.806;2023-03-14T07:20:15;66115.41;;;6.40;100.00
46614;BME280;32338;50.430;6.806;2023-03-14T07:22:42;66115.25;;;6.44;100.00
46614;BME280;32338;50.430;6.806;2023-03-14T07:25:09;66112.25;;;6.39;100.00
46614;BME280;32338;50.430;6.806;2023-03-14T07:27:37;66114.09;;;6.36;100.00
46614;BME280;32338;50.430;6.806;2023-03-14T07:30:07;66124.97;;;6.48;100.00
46614;BME280;32338;50.430;6.806;2023-03-14T07:32:34;66129.78;;;6.51;100.00
46614;BME280;32338;50.430;6.806;2023-03-14T07:35:01;66117.28;;;6.44;100.00
46614;BME280;32338;50.430;6.806;2023-03-14T07:37:27;66128.66;;;6.49;100.00
46614;BME280;32338;50.430;6.806;2023-03-14T07:39:54;66130.38;;;6.51;100.00
46614;BME280;32338;50.430;6.806;2023-03-14T07:42:21;66117.69;;;6.49;100.00
46614;BME280;32338;50.430;6.806;2023-03-14T07:44:47;66129.06;;;6.55;100.00
46614;BME280;32338;50.430;6.806;2023-03-14T07:47:16;66132.25;;;6.55;100.00
46614;BME280;32338;50.430;6.806;2023-03-14T07:49:42;66123.09;;;6.52;100.00
46614;BME280;32338;50.430;6.806;2023-03-14T07:52:09;66122.91;;;6.49;100.00
46614;BME280;32338;50.430;6.806;2023-03-14T07:54:35;66121.78;;;6.48;100.00
46614;BME280;32338;50.430;6.806;2023-03-14T07:57:02;66123.47;;;6.49;100.00
46614;BME280;32338;50.430;6.806;2023-03-14T07:59:29;66142.91;;;6.65;100.00
46614;BME280;32338;50.430;6.806;2023-03-14T08:01:56;66139.75;;;6.64;100.00
46614;BME280;32338;50.430;6.806;2023-03-14T08:04:24;66149.09;;;6.71;100.00
46614;BME280;32338;50.430;6.806;2023-03-14T08:06:52;66154.91;;;6.78;100.00
46614;BME280;32338;50.430;6.806;2023-03-14T08:09:19;66159.00;;;6.77;100.00
46614;BME280;32338;50.430;6.806;2023-03-14T08:11:46;66153.63;;;6.82;100.00
46614;BME280;32338;50.430;6.806;2023-03-14T08:14:13;66169.31;;;6.89;100.00
46614;BME280;32338;50.430;6.806;2023-03-14T08:16:39;66165.19;;;6.83;100.00
46614;BME280;32338;50.430;6.806;2023-03-14T08:19:07;66171.34;;;6.89;100.00
46614;BME280;32338;50.430;6.806;2023-03-14T08:21:35;66183.16;;;7.00;100.00
46614;BME280;32338;50.430;6.806;2023-03-14T08:24:02;66187.84;;;7.06;100.00
46614;BME280;32338;50.430;6.806;2023-03-14T08:26:29;66184.13;;;7.05;100.00
46614;BME280;32338;50.430;6.806;2023-03-14T08:28:55;66198.88;;;7.14;100.00
46614;BME280;32338;50.430;6.806;2023-03-14T08:31:22;66196.47;;;7.17;100.00
46614;BME280;32338;50.430;6.806;2023-03-14T08:33:49;66199.28;;;7.19;100.00
46614;BME280;32338;50.430;6.806;2023-03-14T08:36:18;66196.63;;;7.12;100.00
46614;BME280;32338;50.430;6.806;2023-03-14T08:38:48;66189.19;;;7.10;100.00
46614;BME280;32338;50.430;6.806;2023-03-14T08:41:17;66195.69;;;7.13;100.00
46614;BME280;32338;50.430;6.806;2023-03-14T08:43:44;66196.66;;;7.19;100.00
46614;BME280;32338;50.430;6.806;2023-03-14T08:46:12;66199.09;;;7.17;100.00
46614;BME280;32338;50.430;6.806;2023-03-14T08:48:39;66195.16;;;7.13;100.00
46614;BME280;32338;50.430;6.806;2023-03-14T08:51:06;66199.84;;;7.20;100.00
46614;BME280;32338;50.430;6.806;2023-03-14T08:53:33;66207.34;;;7.29;100.00
46614;BME280;32338;50.430;6.806;2023-03-14T08:56:02;66227.53;;;7.40;100.00
46614;BME280;32338;50.430;6.806;2023-03-14T08:58:31;66235.22;;;7.52;100.00
46614;BME280;32338;50.430;6.806;2023-03-14T09:00:58;66238.22;;;7.50;100.00
46614;BME280;32338;50.430;6.806;2023-03-14T09:03:25;66237.47;;;7.54;100.00
46614;BME280;32338;50.430;6.806;2023-03-14T09:05:52;66240.84;;;7.57;100.00
46614;BME280;32338;50.430;6.806;2023-03-14T09:08:19;66233.91;;;7.49;100.00
46614;BME280;32338;50.430;6.806;2023-03-14T09:10:46;66236.16;;;7.51;100.00
46614;BME280;32338;50.430;6.806;2023-03-14T09:13:17;66245.91;;;7.62;100.00
46614;BME280;32338;50.430;6.806;2023-03-14T09:15:44;66245.91;;;7.62;100.00
46614;BME280;32338;50.430;6.806;2023-03-14T09:18:11;66252.09;;;7.68;100.00
46614;BME280;32338;50.430;6.806;2023-03-14T09:20:39;66235.44;;;7.55;100.00
46614;BME280;32338;50.430;6.806;2023-03-14T09:23:07;66235.59;;;7.50;100.00
46614;BME280;32338;50.430;6.806;2023-03-14T09:25:34;66240.66;;;7.55;100.00
46614;BME280;32338;50.430;6.806;2023-03-14T09:28:04;66244.59;;;7.58;100.00
46614;BME280;32338;50.430;6.806;2023-03-14T09:30:33;66231.88;;;7.49;100.00
46614;BME280;32338;50.430;6.806;2023-03-14T09:33:00;66245.91;;;7.62;100.00
46614;BME280;32338;50.430;6.806;2023-03-14T09:35:29;66267.22;;;7.74;100.00
46614;BME280;32338;50.430;6.806;2023-03-14T09:37:59;66277.38;;;7.91;100.00
46614;BME280;32338;50.430;6.806;2023-03-14T09:40:31;66271.00;;;7.83;100.00
46614;BME280;32338;50.430;6.806;2023-03-14T09:42:58;66263.88;;;7.78;100.00
46614;BME280;32338;50.430;6.806;2023-03-14T09:45:26;66241.41;;;7.58;100.00
46614;BME280;32338;50.430;6.806;2023-03-14T09:47:56;66227.72;;;7.43;100.00
46614;BME280;32338;50.430;6.806;2023-03-14T09:50:26;66206.97;;;7.31;100.00
46614;BME280;32338;50.430;6.806;2023-03-14T09:53:05;66199.09;;;7.17;100.00
46614;BME280;32338;50.430;6.806;2023-03-14T09:55:35;66166.16;;;6.89;100.00
46614;BME280;32338;50.430;6.806;2023-03-14T09:58:04;66127.41;;;6.53;100.00
46614;BME280;32338;50.430;6.806;2023-03-14T10:00:36;66083.06;;;6.12;100.00
46614;BME280;32338;50.430;6.806;2023-03-14T10:03:21;66054.56;;;5.81;100.00
46614;BME280;32338;50.430;6.806;2023-03-14T10:05:48;66020.75;;;5.55;100.00
46614;BME280;32338;50.430;6.806;2023-03-14T10:08:15;66010.25;;;5.41;100.00
46614;BME280;32338;50.430;6.806;2023-03-14T10:10:42;65983.75;;;5.21;100.00
46614;BME280;32338;50.430;6.806;2023-03-14T10:13:14;65971.75;;;5.08;100.00
46614;BME280;32338;50.430;6.806;2023-03-14T10:15:48;65964.13;;;5.03;100.00
46614;BME280;32338;50.430;6.806;2023-03-14T10:18:20;65955.72;;;4.95;100.00
46614;BME280;32338;50.430;6.806;2023-03-14T10:20:48;65951.97;;;4.94;100.00
46614;BME280;32338;50.430;6.806;2023-03-14T10:23:27;65959.56;;;4.92;100.00
46614;BME280;32338;50.430;6.806;2023-03-14T10:26:02;65944.50;;;4.85;100.00
46614;BME280;32338;50.430;6.806;2023-03-14T10:28:34;65954.94;;;4.92;100.00
46614;BME280;32338;50.430;6.806;2023-03-14T10:31:04;65963.56;;;5.02;100.00
46614;BME280;32338;50.430;6.806;2023-03-14T10:33:34;65959.22;;;4.94;100.00
46614;BME280;32338;50.430;6.806;2023-03-14T10:36:03;65968.41;;;5.05;100.00
46614;BME280;32338;50.430;6.806;2023-03-14T10:38:33;65961.88;;;5.01;100.00
46614;BME280;32338;50.430;6.806;2023-03-14T10:41:01;65976.03;;;5.09;100.00
46614;BME280;32338;50.430;6.806;2023-03-14T10:43:33;65976.63;;;5.10;100.00
46614;BME280;32338;50.430;6.806;2023-03-14T10:46:09;65961.88;;;5.01;100.00
46614;BME280;32338;50.430;6.806;2023-03-14T10:48:39;65975.69;;;5.11;100.00
46614;BME280;32338;50.430;6.806;2023-03-14T10:51:09;65994.41;;;5.31;100.00
46614;BME280;32338;50.430;6.806;2023-03-14T10:53:41;66005.56;;;5.34;100.00
46614;BME280;32338;50.430;6.806;2023-03-14T10:56:12;66014.94;;;5.47;100.00
46614;BME280;32338;50.430;6.806;2023-03-14T10:58:43;66005.63;;;5.41;100.00
46614;BME280;32338;50.430;6.806;2023-03-14T11:01:22;66011.38;;;5.42;100.00
46614;BME280;32338;50.430;6.806;2023-03-14T11:03:57;65991.03;;;5.28;100.00
46614;BME280;32338;50.430;6.806;2023-03-14T11:06:35;66000.72;;;5.32;100.00
46614;BME280;32338;50.430;6.806;2023-03-14T11:09:07;65993.28;;;5.30;100.00
46614;BME280;32338;50.430;6.806;2023-03-14T11:11:39;65989.91;;;5.27;100.00
46614;BME280;32338;50.430;6.806;2023-03-14T11:14:16;65993.44;;;5.25;100.00
46614;BME280;32338;50.430;6.806;2023-03-14T11:16:52;65983.75;;;5.21;100.00
46614;BME280;32338;50.430;6.806;2023-03-14T11:22:18;65982.22;;;5.15;100.00
46614;BME280;32338;50.430;6.806;2023-03-14T11:25:02;65971.56;;;5.05;100.00
46614;BME280;32338;50.430;6.806;2023-03-14T11:27:41;65964.69;;;5.03;100.00
46614;BME280;32338;50.430;6.806;2023-03-14T11:30:16;65980.16;;;5.15;100.00
46614;BME280;32338;50.430;6.806;2023-03-14T11:32:45;65978.69;;;5.16;100.00
46614;BME280;32338;50.430;6.806;2023-03-14T11:35:25;66000.00;;;5.36;100.00
46614;BME280;32338;50.430;6.806;2023-03-14T11:37:57;66023.16;;;5.52;100.00
46614;BME280;32338;50.430;6.806;2023-03-14T11:40:29;66029.16;;;5.63;100.00
46614;BME280;32338;50.430;6.806;2023-03-14T11:43:00;66048.81;;;5.81;100.00
46614;BME280;32338;50.430;6.806;2023-03-14T11:45:32;66034.56;;;5.65;100.00
46614;BME280;32338;50.430;6.806;2023-03-14T11:48:17;66014.03;;;5.49;100.00
46614;BME280;32338;50.430;6.806;2023-03-14T11:50:51;66005.63;;;5.41;100.00
46614;BME280;32338;50.430;6.806;2023-03-14T11:53:22;66009.69;;;5.40;100.00
46614;BME280;32338;50.430;6.806;2023-03-14T11:55:52;66026.16;;;5.58;100.00
46614;BME280;32338;50.430;6.806;2023-03-14T11:58:22;66034.56;;;5.65;100.00
46614;BME280;32338;50.430;6.806;2023-03-14T12:00:51;66034.38;;;5.63;100.00
46614;BME280;32338;50.430;6.806;2023-03-14T12:03:28;66034.22;;;5.67;100.00
46614;BME280;32338;50.430;6.806;2023-03-14T12:06:13;66048.03;;;5.78;100.00
46614;BME280;32338;50.430;6.806;2023-03-14T12:08:46;66053.66;;;5.83;100.00
46614;BME280;32338;50.430;6.806;2023-03-14T12:11:30;66046.56;;;5.79;100.00
46614;BME280;32338;50.430;6.806;2023-03-14T12:13:58;66044.09;;;5.74;100.00
46614;BME280;32338;50.430;6.806;2023-03-14T12:16:34;66028.03;;;5.62;100.00
46614;BME280;32338;50.430;6.806;2023-03-14T12:19:33;66013.81;;;5.46;100.00
46614;BME280;32338;50.430;6.806;2023-03-14T12:24:50;66004.63;;;5.35;100.00
46614;BME280;32338;50.430;6.806;2023-03-14T12:27:40;65999.44;;;5.35;100.00
46614;BME280;32338;50.430;6.806;2023-03-14T12:30:17;65997.00;;;5.31;100.00
46614;BME280;32338;50.430;6.806;2023-03-14T12:36:01;65988.22;;;5.25;100.00
46614;BME280;32338;50.430;6.806;2023-03-14T12:38:45;65995.50;;;5.32;100.00
46614;BME280;32338;50.430;6.806;2023-03-14T12:41:17;65977.56;;;5.15;100.00
46614;BME280;32338;50.430;6.806;2023-03-14T12:43:46;65961.88;;;5.01;100.00
46614;BME280;32338;50.430;6.806;2023-03-14T12:46:22;65938.13;;;4.77;100.00
46614;BME280;32338;50.430;6.806;2023-03-14T12:48:53;65906.59;;;4.52;100.00
46614;BME280;32338;50.430;6.806;2023-03-14T12:51:28;65910.88;;;4.54;100.00
46614;BME280;32338;50.430;6.806;2023-03-14T12:54:23;65891.47;;;4.38;100.00
46614;BME280;32338;50.430;6.806;2023-03-14T12:57:03;65889.38;;;4.32;100.00
46614;BME280;32338;50.430;6.806;2023-03-14T12:59:33;65871.66;;;4.18;100.00
46614;BME280;32338;50.430;6.806;2023-03-14T13:02:12;65877.41;;;4.18;100.00
46614;BME280;32338;50.430;6.806;2023-03-14T13:04:44;65858.00;;;4.03;100.00
46614;BME280;32338;50.430;6.806;2023-03-14T13:07:13;65840.84;;;3.89;100.00
46614;BME280;32338;50.430;6.806;2023-03-14T13:10:03;65825.88;;;3.71;100.00
46614;BME280;32338;50.430;6.806;2023-03-14T13:12:37;65804.78;;;3.54;100.00
46614;BME280;32338;50.430;6.806;2023-03-14T13:15:17;65807.03;;;3.56;100.00
46614;BME280;32338;50.430;6.806;2023-03-14T13:17:46;65827.75;;;3.75;100.00
46614;BME280;32338;50.430;6.806;2023-03-14T13:20:18;65825.28;;;3.70;100.00
46614;BME280;32338;50.430;6.806;2023-03-14T13:22:49;65810.19;;;3.56;100.00
46614;BME280;32338;50.430;6.806;2023-03-14T13:25:17;65799.75;;;3.49;100.00
46614;BME280;32338;50.430;6.806;2023-03-14T13:27:46;65790.59;;;3.38;100.00
46614;BME280;32338;50.430;6.806;2023-03-14T13:30:20;65789.69;;;3.40;100.00
46614;BME280;32338;50.430;6.806;2023-03-14T13:32:49;65788.75;;;3.41;100.00
46614;BME280;32338;50.430;6.806;2023-03-14T13:35:21;65791.16;;;3.39;100.00
46614;BME280;32338;50.430;6.806;2023-03-14T13:37:54;65766.94;;;3.21;100.00
46614;BME280;32338;50.430;6.806;2023-03-14T13:40:29;65766.94;;;3.21;100.00
46614;BME280;32338;50.430;6.806;2023-03-14T13:43:01;65760.59;;;3.13;100.00
46614;BME280;32338;50.430;6.806;2023-03-14T13:45:28;65745.09;;;3.01;100.00
46614;BME280;32338;50.430;6.806;2023-03-14T13:47:55;65732.25;;;2.89;100.00